sensor_id;sensor_type;location;lat;lon;timestamp;pressure;altitude;pressure_sealevel;temperature;humidity
36242;BME280;22283;42.748;12.732;2024-02-21T00:01:39;98836.91;;;4.28;73.25
36242;BME280;22283;42.748;12.732;2024-02-21T00:06:39;98824.25;;;4.39;71.04
36242;BME280;22283;42.748;12.732;2024-02-21T00:11:40;98824.03;;;4.46;70.03
36242;BME280;22283;42.748;12.732;2024-02-21T00:16:40;98821.88;;;4.57;68.85
36242;BME280;22283;42.748;12.732;2024-02-21T00:21:41;98794.06;;;4.29;69.98
36242;BME280;22283;42.748;12.732;2024-02-21T00:26:41;98811.72;;;4.24;71.37
36242;BME280;22283;42.748;12.732;2024-02-21T00:31:42;98800.41;;;3.99;72.54
36242;BME280;22283;42.748;12.732;2024-02-21T00:36:43;98805.50;;;3.78;73.53
36242;BME280;22283;42.748;12.732;2024-02-21T00:41:43;98801.88;;;3.57;75.69
36242;BME280;22283;42.748;12.732;2024-02-21T00:46:44;98822.06;;;3.54;76.26
36242;BME280;22283;42.748;12.732;2024-02-21T00:51:44;98808.06;;;3.28;77.65
36242;BME280;22283;42.748;12.732;2024-02-21T00:56:45;98819.34;;;3.30;78.07
36242;BME280;22283;42.748;12.732;2024-02-21T01:01:45;98811.59;;;3.54;75.29
36242;BME280;22283;42.748;12.732;2024-02-21T01:06:46;98811.16;;;3.41;76.12
36242;BME280;22283;42.748;12.732;2024-02-21T01:11:46;98826.13;;;3.36;76.10
36242;BME280;22283;42.748;12.732;2024-02-21T01:16:47;98824.47;;;3.33;75.36
36242;BME280;22283;42.748;12.732;2024-02-21T01:21:47;98821.34;;;3.22;75.75
36242;BME280;22283;42.748;12.732;2024-02-21T01:26:48;98838.44;;;3.06;77.08
36242;BME280;22283;42.748;12.732;2024-02-21T01:31:48;98822.22;;;2.94;77.90
36242;BME280;22283;42.748;12.732;2024-02-21T01:36:49;98815.47;;;2.87;78.18
36242;BME280;22283;42.748;12.732;2024-02-21T01:41:49;98829.69;;;3.07;76.65
36242;BME280;22283;42.748;12.732;2024-02-21T01:46:50;98830.88;;;2.96;77.43
36242;BME280;22283;42.748;12.732;2024-02-21T01:51:52;98810.69;;;3.02;76.69
36242;BME280;22283;42.748;12.732;2024-02-21T01:56:54;98815.38;;;3.18;75.61
36242;BME280;22283;42.748;12.732;2024-02-21T02:01:55;98821.53;;;2.89;76.08
36242;BME280;22283;42.748;12.732;2024-02-21T02:07:00;98832.06;;;2.86;77.44
36242;BME280;22283;42.748;12.732;2024-02-21T02:12:03;98828.31;;;2.67;77.96
36242;BME280;22283;42.748;12.732;2024-02-21T02:17:04;98840.16;;;2.77;78.56
36242;BME280;22283;42.748;12.732;2024-02-21T02:22:16;98834.59;;;2.60;79.22
36242;BME280;22283;42.748;12.732;2024-02-21T02:27:21;98847.50;;;2.66;80.25
36242;BME280;22283;42.748;12.732;2024-02-21T02:32:23;98852.22;;;2.53;80.38
36242;BME280;22283;42.748;12.732;2024-02-21T02:37:23;98851.97;;;2.31;81.62
36242;BME280;22283;42.748;12.732;2024-02-21T02:42:24;98848.47;;;2.32;84.59
36242;BME280;22283;42.748;12.732;2024-02-21T02:47:25;98855.66;;;2.24;84.10
36242;BME280;22283;42.748;12.732;2024-02-21T02:52:25;98852.34;;;2.19;85.14
36242;BME280;22283;42.748;12.732;2024-02-21T02:57:26;98849.66;;;2.22;85.70
36242;BME280;22283;42.748;12.732;2024-02-21T03:02:26;98832.28;;;2.51;83.54
36242;BME280;22283;42.748;12.732;2024-02-21T03:07:27;98839.75;;;2.63;83.16
36242;BME280;22283;42.748;12.732;2024-02-21T03:12:28;98856.78;;;2.46;83.79
36242;BME280;22283;42.748;12.732;2024-02-21T03:17:29;98850.81;;;2.41;84.11
36242;BME280;22283;42.748;12.732;2024-02-21T03:22:31;98851.28;;;2.26;85.23
36242;BME280;22283;42.748;12.732;2024-02-21T03:27:32;98855.75;;;2.21;86.19
36242;BME280;22283;42.748;12.732;2024-02-21T03:32:32;98837.78;;;2.10;87.24
36242;BME280;22283;42.748;12.732;2024-02-21T03:37:33;98848.66;;;2.26;86.98
36242;BME280;22283;42.748;12.732;2024-02-21T03:42:33;98864.78;;;2.40;85.54
36242;BME280;22283;42.748;12.732;2024-02-21T03:47:34;98864.28;;;2.28;86.12
36242;BME280;22283;42.748;12.732;2024-02-21T03:52:34;98851.63;;;2.14;88.31
36242;BME280;22283;42.748;12.732;2024-02-21T03:57:35;98851.22;;;2.28;87.03
36242;BME280;22283;42.748;12.732;2024-02-21T04:02:35;98850.53;;;2.21;87.30
36242;BME280;22283;42.748;12.732;2024-02-21T04:07:37;98836.81;;;2.14;88.79
36242;BME280;22283;42.748;12.732;2024-02-21T04:12:38;98837.09;;;2.04;88.53
36242;BME280;22283;42.748;12.732;2024-02-21T04:17:39;98834.75;;;1.93;90.10
36242;BME280;22283;42.748;12.732;2024-02-21T04:22:39;98838.75;;;1.73;91.87
36242;BME280;22283;42.748;12.732;2024-02-21T04:27:40;98829.34;;;1.68;93.39
36242;BME280;22283;42.748;12.732;2024-02-21T04:32:40;98835.34;;;1.71;93.02
36242;BME280;22283;42.748;12.732;2024-02-21T04:37:41;98841.56;;;1.66;93.99
36242;BME280;22283;42.748;12.732;2024-02-21T04:42:41;98846.44;;;1.80;93.52
36242;BME280;22283;42.748;12.732;2024-02-21T04:47:42;98841.09;;;1.84;92.78
36242;BME280;22283;42.748;12.732;2024-02-21T04:52:43;98837.50;;;1.88;92.62
36242;BME280;22283;42.748;12.732;2024-02-21T04:57:43;98853.88;;;1.93;91.73
36242;BME280;22283;42.748;12.732;2024-02-21T05:02:44;98850.88;;;1.76;93.27
36242;BME280;22283;42.748;12.732;2024-02-21T05:07:44;98859.03;;;1.64;94.28
36242;BME280;22283;42.748;12.732;2024-02-21T05:12:46;98858.84;;;1.70;95.51
36242;BME280;22283;42.748;12.732;2024-02-21T05:17:46;98858.94;;;1.67;94.59
36242;BME280;22283;42.748;12.732;2024-02-21T05:22:47;98861.81;;;1.56;96.49
36242;BME280;22283;42.748;12.732;2024-02-21T05:27:47;98872.69;;;1.38;97.18
36242;BME280;22283;42.748;12.732;2024-02-21T05:32:48;98863.56;;;1.20;98.74
36242;BME280;22283;42.748;12.732;2024-02-21T05:37:49;98867.09;;;1.19;99.62
36242;BME280;22283;42.748;12.732;2024-02-21T05:42:53;98856.78;;;1.13;100.00
36242;BME280;22283;42.748;12.732;2024-02-21T05:47:53;98843.69;;;1.16;100.00
36242;BME280;22283;42.748;12.732;2024-02-21T05:52:54;98847.94;;;1.20;100.00
36242;BME280;22283;42.748;12.732;2024-02-21T05:57:55;98855.03;;;1.13;100.00
36242;BME280;22283;42.748;12.732;2024-02-21T06:02:56;98839.50;;;1.09;100.00
36242;BME280;22283;42.748;12.732;2024-02-21T06:07:57;98858.66;;;1.08;100.00
36242;BME280;22283;42.748;12.732;2024-02-21T06:12:58;98861.09;;;1.15;100.00
36242;BME280;22283;42.748;12.732;2024-02-21T06:17:59;98870.50;;;1.21;100.00
36242;BME280;22283;42.748;12.732;2024-02-21T06:22:59;98883.34;;;1.29;100.00
36242;BME280;22283;42.748;12.732;2024-02-21T06:28:00;98897.63;;;1.50;100.00
36242;BME280;22283;42.748;12.732;2024-02-21T06:33:00;98907.44;;;1.74;96.91
36242;BME280;22283;42.748;12.732;2024-02-21T06:38:03;98916.56;;;1.92;95.24
36242;BME280;22283;42.748;12.732;2024-02-21T06:43:04;98927.53;;;2.05;94.66
36242;BME280;22283;42.748;12.732;2024-02-21T06:48:04;98923.69;;;2.51;92.35
36242;BME280;22283;42.748;12.732;2024-02-21T06:53:05;98940.50;;;3.03;89.62
36242;BME280;22283;42.748;12.732;2024-02-21T06:58:06;98948.50;;;3.54;86.32
36242;BME280;22283;42.748;12.732;2024-02-21T07:03:11;98933.41;;;3.89;82.36
36242;BME280;22283;42.748;12.732;2024-02-21T07:08:12;98924.88;;;4.09;81.51
36242;BME280;22283;42.748;12.732;2024-02-21T07:13:13;98941.56;;;4.31;77.47
36242;BME280;22283;42.748;12.732;2024-02-21T07:18:16;98939.81;;;4.55;78.33
36242;BME280;22283;42.748;12.732;2024-02-21T07:23:16;98954.88;;;4.75;78.44
36242;BME280;22283;42.748;12.732;2024-02-21T07:28:17;98954.06;;;4.73;79.81
36242;BME280;22283;42.748;12.732;2024-02-21T07:33:17;98954.75;;;5.02;76.73
36242;BME280;22283;42.748;12.732;2024-02-21T07:38:20;98951.88;;;5.31;73.50
36242;BME280;22283;42.748;12.732;2024-02-21T07:43:21;98962.34;;;5.55;75.10
36242;BME280;22283;42.748;12.732;2024-02-21T07:48:22;98949.56;;;5.67;77.57
36242;BME280;22283;42.748;12.732;2024-02-21T07:53:26;98947.72;;;5.91;75.99
36242;BME280;22283;42.748;12.732;2024-02-21T07:58:27;98932.94;;;6.11;78.67
36242;BME280;22283;42.748;12.732;2024-02-21T08:03:27;98918.88;;;6.32;77.80
36242;BME280;22283;42.748;12.732;2024-02-21T08:08:28;98931.25;;;6.70;75.34
36242;BME280;22283;42.748;12.732;2024-02-21T08:13:28;98917.06;;;6.93;75.37
36242;BME280;22283;42.748;12.732;2024-02-21T08:18:29;98908.88;;;6.99;77.16
36242;BME280;22283;42.748;12.732;2024-02-21T08:23:30;98917.91;;;7.31;74.66
36242;BME280;22283;42.748;12.732;2024-02-21T08:28:30;98931.53;;;7.58;74.31
36242;BME280;22283;42.748;12.732;2024-02-21T08:33:31;98920.97;;;7.77;72.77
36242;BME280;22283;42.748;12.732;2024-02-21T08:38:31;98929.97;;;8.07;71.66
36242;BME280;22283;42.748;12.732;2024-02-21T08:43:32;98928.81;;;8.30;67.52
36242;BME280;22283;42.748;12.732;2024-02-21T08:48:34;98933.63;;;8.57;67.40
36242;BME280;22283;42.748;12.732;2024-02-21T08:53:35;98941.03;;;8.83;64.68
36242;BME280;22283;42.748;12.732;2024-02-21T08:58:36;98932.31;;;8.99;61.18
36242;BME280;22283;42.748;12.732;2024-02-21T09:03:38;98948.75;;;9.20;62.10
36242;BME280;22283;42.748;12.732;2024-02-21T09:08:38;98951.91;;;9.42;62.88
36242;BME280;22283;42.748;12.732;2024-02-21T09:13:39;98958.97;;;9.73;62.37
36242;BME280;22283;42.748;12.732;2024-02-21T09:18:39;98950.72;;;9.79;60.45
36242;BME280;22283;42.748;12.732;2024-02-21T09:23:40;98940.53;;;10.03;59.61
36242;BME280;22283;42.748;12.732;2024-02-21T09:28:40;98929.03;;;10.34;57.87
36242;BME280;22283;42.748;12.732;2024-02-21T09:33:41;98916.78;;;10.62;54.46
36242;BME280;22283;42.748;12.732;2024-02-21T09:38:41;98921.91;;;10.79;52.80
36242;BME280;22283;42.748;12.732;2024-02-21T09:43:43;98924.91;;;11.16;50.52
36242;BME280;22283;42.748;12.732;2024-02-21T09:49:00;98928.06;;;11.50;48.77
36242;BME280;22283;42.748;12.732;2024-02-21T09:54:04;98942.94;;;11.52;47.68
36242;BME280;22283;42.748;12.732;2024-02-21T09:59:05;98935.84;;;11.53;48.17
36242;BME280;22283;42.748;12.732;2024-02-21T10:04:05;98935.03;;;11.65;47.34
36242;BME280;22283;42.748;12.732;2024-02-21T10:09:06;98940.47;;;11.91;47.09
36242;BME280;22283;42.748;12.732;2024-02-21T10:14:07;98932.66;;;12.02;47.31
36242;BME280;22283;42.748;12.732;2024-02-21T10:19:16;98924.13;;;11.84;46.75
36242;BME280;22283;42.748;12.732;2024-02-21T10:24:26;98930.31;;;11.97;45.95
36242;BME280;22283;42.748;12.732;2024-02-21T10:29:26;98924.97;;;12.24;46.05
36242;BME280;22283;42.748;12.732;2024-02-21T10:34:27;98918.06;;;12.35;44.78
36242;BME280;22283;42.748;12.732;2024-02-21T10:39:27;98921.28;;;12.40;44.84
36242;BME280;22283;42.748;12.732;2024-02-21T10:44:28;98921.28;;;12.52;44.76
36242;BME280;22283;42.748;12.732;2024-02-21T10:49:31;98922.13;;;12.53;44.57
36242;BME280;22283;42.748;12.732;2024-02-21T10:54:46;98913.44;;;12.76;43.68
36242;BME280;22283;42.748;12.732;2024-02-21T10:59:48;98904.72;;;13.00;42.27
36242;BME280;22283;42.748;12.732;2024-02-21T11:04:49;98887.44;;;13.18;41.64
36242;BME280;22283;42.748;12.732;2024-02-21T11:09:53;98877.97;;;13.40;41.82
36242;BME280;22283;42.748;12.732;2024-02-21T11:15:05;98875.88;;;13.56;42.01
36242;BME280;22283;42.748;12.732;2024-02-21T11:20:13;98867.13;;;13.67;41.61
36242;BME280;22283;42.748;12.732;2024-02-21T11:25:21;98850.31;;;13.66;42.37
36242;BME280;22283;42.748;12.732;2024-02-21T11:30:27;98836.06;;;13.67;42.22
36242;BME280;22283;42.748;12.732;2024-02-21T11:35:31;98813.53;;;13.60;41.88
36242;BME280;22283;42.748;12.732;2024-02-21T11:40:38;98808.63;;;13.67;42.63
36242;BME280;22283;42.748;12.732;2024-02-21T11:45:39;98805.41;;;13.86;41.99
36242;BME280;22283;42.748;12.732;2024-02-21T11:50:40;98797.31;;;13.87;41.69
36242;BME280;22283;42.748;12.732;2024-02-21T11:55:40;98782.94;;;14.01;41.33
36242;BME280;22283;42.748;12.732;2024-02-21T12:00:41;98785.44;;;14.26;40.37
36242;BME280;22283;42.748;12.732;2024-02-21T12:05:41;98774.03;;;14.13;40.30
36242;BME280;22283;42.748;12.732;2024-02-21T12:10:42;98780.56;;;14.20;40.26
36242;BME280;22283;42.748;12.732;2024-02-21T12:15:47;98771.63;;;14.33;39.60
36242;BME280;22283;42.748;12.732;2024-02-21T12:20:49;98762.19;;;14.40;40.12
36242;BME280;22283;42.748;12.732;2024-02-21T12:25:51;98762.00;;;14.54;39.76
36242;BME280;22283;42.748;12.732;2024-02-21T12:30:54;98748.78;;;14.64;40.03
36242;BME280;22283;42.748;12.732;2024-02-21T12:35:55;98729.66;;;14.70;40.05
36242;BME280;22283;42.748;12.732;2024-02-21T12:41:04;98736.53;;;14.84;40.04
36242;BME280;22283;42.748;12.732;2024-02-21T12:46:05;98713.06;;;14.78;39.73
36242;BME280;22283;42.748;12.732;2024-02-21T12:51:07;98714.38;;;14.83;40.45
36242;BME280;22283;42.748;12.732;2024-02-21T12:56:08;98713.03;;;14.89;39.81
36242;BME280;22283;42.748;12.732;2024-02-21T13:01:08;98688.53;;;14.95;38.86
36242;BME280;22283;42.748;12.732;2024-02-21T13:06:09;98693.63;;;14.98;38.84
36242;BME280;22283;42.748;12.732;2024-02-21T13:11:10;98687.28;;;15.10;37.81
36242;BME280;22283;42.748;12.732;2024-02-21T13:16:12;98679.25;;;15.21;38.11
36242;BME280;22283;42.748;12.732;2024-02-21T13:21:13;98677.03;;;15.27;38.52
36242;BME280;22283;42.748;12.732;2024-02-21T13:26:14;98658.38;;;15.27;39.01
36242;BME280;22283;42.748;12.732;2024-02-21T13:31:14;98661.22;;;15.35;38.64
36242;BME280;22283;42.748;12.732;2024-02-21T13:36:16;98653.69;;;15.40;38.23
36242;BME280;22283;42.748;12.732;2024-02-21T13:41:17;98641.72;;;15.34;37.90
36242;BME280;22283;42.748;12.732;2024-02-21T13:46:25;98639.25;;;15.42;38.51
36242;BME280;22283;42.748;12.732;2024-02-21T13:51:34;98640.03;;;15.54;37.70
36242;BME280;22283;42.748;12.732;2024-02-21T13:56:38;98619.28;;;15.58;36.50
36242;BME280;22283;42.748;12.732;2024-02-21T14:01:38;98618.19;;;15.60;36.55
36242;BME280;22283;42.748;12.732;2024-02-21T14:06:39;98620.22;;;15.68;35.05
36242;BME280;22283;42.748;12.732;2024-02-21T14:11:43;98628.34;;;15.66;35.95
36242;BME280;22283;42.748;12.732;2024-02-21T14:16:45;98616.88;;;15.76;36.37
36242;BME280;22283;42.748;12.732;2024-02-21T14:21:48;98613.69;;;15.82;36.16
36242;BME280;22283;42.748;12.732;2024-02-21T14:26:48;98611.28;;;15.79;36.79
36242;BME280;22283;42.748;12.732;2024-02-21T14:31:49;98600.22;;;15.62;37.31
36242;BME280;22283;42.748;12.732;2024-02-21T14:36:49;98594.84;;;15.53;37.83
36242;BME280;22283;42.748;12.732;2024-02-21T14:41:50;98595.44;;;15.56;37.44
36242;BME280;22283;42.748;12.732;2024-02-21T14:46:51;98592.94;;;15.64;36.77
36242;BME280;22283;42.748;12.732;2024-02-21T14:51:52;98586.50;;;15.67;36.44
36242;BME280;22283;42.748;12.732;2024-02-21T14:57:00;98574.75;;;15.69;36.22
36242;BME280;22283;42.748;12.732;2024-02-21T15:02:01;98577.16;;;15.72;36.17
36242;BME280;22283;42.748;12.732;2024-02-21T15:07:01;98569.41;;;15.69;35.83
36242;BME280;22283;42.748;12.732;2024-02-21T15:12:02;98574.16;;;15.66;35.91
36242;BME280;22283;42.748;12.732;2024-02-21T15:17:03;98569.41;;;15.69;33.92
36242;BME280;22283;42.748;12.732;2024-02-21T15:22:04;98570.66;;;15.65;32.84
36242;BME280;22283;42.748;12.732;2024-02-21T15:27:04;98560.03;;;15.54;32.44
36242;BME280;22283;42.748;12.732;2024-02-21T15:32:05;98568.44;;;15.49;33.11
36242;BME280;22283;42.748;12.732;2024-02-21T15:37:13;98568.94;;;15.43;33.52
36242;BME280;22283;42.748;12.732;2024-02-21T15:42:15;98566.44;;;15.42;32.96
36242;BME280;22283;42.748;12.732;2024-02-21T15:47:19;98560.72;;;15.25;32.54
36242;BME280;22283;42.748;12.732;2024-02-21T15:52:23;98566.72;;;15.18;32.42
36242;BME280;22283;42.748;12.732;2024-02-21T15:57:24;98569.50;;;14.95;33.90
36242;BME280;22283;42.748;12.732;2024-02-21T16:02:25;98571.25;;;14.42;37.16
36242;BME280;22283;42.748;12.732;2024-02-21T16:07:26;98568.94;;;13.94;38.99
36242;BME280;22283;42.748;12.732;2024-02-21T16:12:27;98582.59;;;13.44;41.91
36242;BME280;22283;42.748;12.732;2024-02-21T16:17:28;98583.81;;;13.05;44.13
36242;BME280;22283;42.748;12.732;2024-02-21T16:22:28;98584.63;;;12.70;45.83
36242;BME280;22283;42.748;12.732;2024-02-21T16:27:29;98582.09;;;12.21;48.19
36242;BME280;22283;42.748;12.732;2024-02-21T16:32:30;98590.03;;;11.71;50.71
36242;BME280;22283;42.748;12.732;2024-02-21T16:37:31;98597.16;;;11.32;52.16
36242;BME280;22283;42.748;12.732;2024-02-21T16:42:32;98600.41;;;10.98;53.49
36242;BME280;22283;42.748;12.732;2024-02-21T16:47:32;98608.84;;;10.77;54.72
36242;BME280;22283;42.748;12.732;2024-02-21T16:52:33;98602.09;;;10.59;55.96
36242;BME280;22283;42.748;12.732;2024-02-21T16:57:40;98602.28;;;10.29;56.93
36242;BME280;22283;42.748;12.732;2024-02-21T17:02:40;98608.63;;;10.26;57.53
36242;BME280;22283;42.748;12.732;2024-02-21T17:07:41;98607.31;;;10.05;58.04
36242;BME280;22283;42.748;12.732;2024-02-21T17:12:42;98622.81;;;9.97;58.52
36242;BME280;22283;42.748;12.732;2024-02-21T17:17:42;98620.19;;;9.82;58.46
36242;BME280;22283;42.748;12.732;2024-02-21T17:22:43;98630.56;;;9.85;58.45
36242;BME280;22283;42.748;12.732;2024-02-21T17:27:44;98621.69;;;9.87;57.22
36242;BME280;22283;42.748;12.732;2024-02-21T17:32:44;98628.19;;;9.81;57.34
36242;BME280;22283;42.748;12.732;2024-02-21T17:37:45;98631.91;;;9.64;56.83
36242;BME280;22283;42.748;12.732;2024-02-21T17:42:46;98624.53;;;9.69;56.49
36242;BME280;22283;42.748;12.732;2024-02-21T17:47:46;98633.31;;;9.55;56.65
36242;BME280;22283;42.748;12.732;2024-02-21T17:52:48;98636.59;;;9.45;56.90
36242;BME280;22283;42.748;12.732;2024-02-21T17:57:49;98641.84;;;9.30;57.16
36242;BME280;22283;42.748;12.732;2024-02-21T18:02:50;98646.78;;;9.06;57.54
36242;BME280;22283;42.748;12.732;2024-02-21T18:07:50;98644.19;;;8.91;58.03
36242;BME280;22283;42.748;12.732;2024-02-21T18:12:51;98648.91;;;8.85;57.91
36242;BME280;22283;42.748;12.732;2024-02-21T18:17:52;98644.31;;;8.73;58.07
36242;BME280;22283;42.748;12.732;2024-02-21T18:22:52;98650.31;;;8.61;58.78
36242;BME280;22283;42.748;12.732;2024-02-21T18:27:53;98651.59;;;8.54;59.02
36242;BME280;22283;42.748;12.732;2024-02-21T18:32:55;98649.31;;;8.48;58.37
36242;BME280;22283;42.748;12.732;2024-02-21T18:37:55;98638.81;;;8.30;58.65
36242;BME280;22283;42.748;12.732;2024-02-21T18:42:56;98653.63;;;8.17;59.17
36242;BME280;22283;42.748;12.732;2024-02-21T18:47:58;98641.59;;;8.27;56.67
36242;BME280;22283;42.748;12.732;2024-02-21T18:52:58;98656.25;;;8.17;58.13
36242;BME280;22283;42.748;12.732;2024-02-21T18:58:00;98660.28;;;7.91;58.13
36242;BME280;22283;42.748;12.732;2024-02-21T19:03:00;98648.47;;;7.82;57.76
36242;BME280;22283;42.748;12.732;2024-02-21T19:08:01;98656.38;;;7.82;57.89
36242;BME280;22283;42.748;12.732;2024-02-21T19:13:01;98664.53;;;7.78;57.48
36242;BME280;22283;42.748;12.732;2024-02-21T19:18:02;98676.91;;;7.76;57.86
36242;BME280;22283;42.748;12.732;2024-02-21T19:23:03;98679.28;;;7.64;57.97
36242;BME280;22283;42.748;12.732;2024-02-21T19:28:04;98670.69;;;7.61;57.46
36242;BME280;22283;42.748;12.732;2024-02-21T19:33:05;98657.97;;;7.52;58.56
36242;BME280;22283;42.748;12.732;2024-02-21T19:38:06;98667.75;;;7.50;59.14
36242;BME280;22283;42.748;12.732;2024-02-21T19:43:06;98667.94;;;7.29;59.60
36242;BME280;22283;42.748;12.732;2024-02-21T19:48:07;98667.63;;;7.18;60.38
36242;BME280;22283;42.748;12.732;2024-02-21T19:53:08;98656.63;;;7.27;59.90
36242;BME280;22283;42.748;12.732;2024-02-21T19:58:08;98646.88;;;7.12;60.27
36242;BME280;22283;42.748;12.732;2024-02-21T20:03:09;98646.41;;;7.04;61.00
36242;BME280;22283;42.748;12.732;2024-02-21T20:08:09;98650.28;;;6.97;61.39
36242;BME280;22283;42.748;12.732;2024-02-21T20:13:11;98643.09;;;6.83;62.03
36242;BME280;22283;42.748;12.732;2024-02-21T20:18:13;98642.72;;;6.73;62.42
36242;BME280;22283;42.748;12.732;2024-02-21T20:23:14;98643.84;;;6.68;62.15
36242;BME280;22283;42.748;12.732;2024-02-21T20:28:15;98660.31;;;6.71;62.32
36242;BME280;22283;42.748;12.732;2024-02-21T20:33:17;98649.09;;;6.68;62.90
36242;BME280;22283;42.748;12.732;2024-02-21T20:38:18;98649.66;;;6.74;64.00
36242;BME280;22283;42.748;12.732;2024-02-21T20:43:18;98647.75;;;6.95;64.28
36242;BME280;22283;42.748;12.732;2024-02-21T20:48:19;98643.94;;;7.18;63.87
36242;BME280;22283;42.748;12.732;2024-02-21T20:53:19;98640.84;;;7.45;63.79
36242;BME280;22283;42.748;12.732;2024-02-21T20:58:23;98631.63;;;7.69;62.69
36242;BME280;22283;42.748;12.732;2024-02-21T21:03:24;98638.75;;;7.67;59.30
36242;BME280;22283;42.748;12.732;2024-02-21T21:08:24;98637.09;;;7.49;59.14
36242;BME280;22283;42.748;12.732;2024-02-21T21:13:25;98640.25;;;7.55;62.18
36242;BME280;22283;42.748;12.732;2024-02-21T21:18:27;98636.84;;;8.02;61.54
36242;BME280;22283;42.748;12.732;2024-02-21T21:23:30;98626.00;;;8.24;61.16
36242;BME280;22283;42.748;12.732;2024-02-21T21:28:31;98629.41;;;8.42;60.80
36242;BME280;22283;42.748;12.732;2024-02-21T21:33:32;98616.47;;;8.37;60.70
36242;BME280;22283;42.748;12.732;2024-02-21T21:38:34;98618.50;;;8.32;61.18
36242;BME280;22283;42.748;12.732;2024-02-21T21:43:34;98614.94;;;8.49;60.50
36242;BME280;22283;42.748;12.732;2024-02-21T21:48:36;98625.16;;;8.40;60.65
36242;BME280;22283;42.748;12.732;2024-02-21T21:53:36;98618.94;;;8.09;60.36
36242;BME280;22283;42.748;12.732;2024-02-21T21:58:37;98620.97;;;8.04;62.26
36242;BME280;22283;42.748;12.732;2024-02-21T22:03:38;98604.91;;;8.24;61.79
36242;BME280;22283;42.748;12.732;2024-02-21T22:08:38;98603.38;;;8.20;62.39
36242;BME280;22283;42.748;12.732;2024-02-21T22:13:39;98603.38;;;8.20;62.66
36242;BME280;22283;42.748;12.732;2024-02-21T22:18:43;98602.75;;;8.15;63.04
36242;BME280;22283;42.748;12.732;2024-02-21T22:23:44;98600.97;;;8.00;63.65
36242;BME280;22283;42.748;12.732;2024-02-21T22:28:46;98600.53;;;7.92;64.04
36242;BME280;22283;42.748;12.732;2024-02-21T22:33:47;98606.41;;;7.81;64.52
36242;BME280;22283;42.748;12.732;2024-02-21T22:38:48;98608.34;;;7.77;64.29
36242;BME280;22283;42.748;12.732;2024-02-21T22:43:48;98610.16;;;7.77;64.92
36242;BME280;22283;42.748;12.732;2024-02-21T22:48:49;98603.66;;;7.67;65.39
36242;BME280;22283;42.748;12.732;2024-02-21T22:53:50;98606.22;;;7.68;65.25
36242;BME280;22283;42.748;12.732;2024-02-21T22:58:50;98577.31;;;7.51;65.37
36242;BME280;22283;42.748;12.732;2024-02-21T23:03:51;98604.06;;;7.59;65.58
36242;BME280;22283;42.748;12.732;2024-02-21T23:08:52;98601.00;;;7.51;65.83
36242;BME280;22283;42.748;12.732;2024-02-21T23:13:54;98579.66;;;7.39;66.32
36242;BME280;22283;42.748;12.732;2024-02-21T23:18:54;98588.78;;;7.32;66.21
36242;BME280;22283;42.748;12.732;2024-02-21T23:23:55;98584.03;;;7.23;66.39
36242;BME280;22283;42.748;12.732;2024-02-21T23:28:57;98581.09;;;7.29;66.74
36242;BME280;22283;42.748;12.732;2024-02-21T23:33:58;98573.09;;;7.31;66.28
36242;BME280;22283;42.748;12.732;2024-02-21T23:38:58;98579.53;;;7.25;66.85
36242;BME280;22283;42.748;12.732;2024-02-21T23:43:59;98582.56;;;7.18;67.20
36242;BME280;22283;42.748;12.732;2024-02-21T23:49:00;98576.03;;;7.09;67.50
36242;BME280;22283;42.748;12.732;2024-02-21T23:54:03;98571.41;;;7.12;67.40
36242;BME280;22283;42.748;12.732;2024-02-21T23:59:04;98576.72;;;7.28;66.45
